Time;durP1;ratioP1;P1;durP2;ratioP2;P2;SDS_P1;SDS_P2;PMS_P1;PMS_P2;Temp;Humidity;BMP_temperature;BMP_pressure;BME280_temperature;BME280_humidity;BME280_pressure;Samples;Min_cycle;Max_cycle;Signal;HPM_P1;HPM_P2
2022/01/23 00:02:15;;;;;;;62.58;16.17;;;5.20;99.90;;;;;;4840638;29;20042;-65
2022/01/23 00:04:41;;;;;;;65.55;16.48;;;5.20;99.90;;;;;;4861163;29;20035;-65
2022/01/23 00:07:09;;;;;;;73.55;17.38;;;5.20;99.90;;;;;;4859840;29;20462;-65
2022/01/23 00:09:34;;;;;;;67.07;17.35;;;5.20;99.90;;;;;;4861310;29;20145;-65
2022/01/23 00:12:04;;;;;;;70.78;16.35;;;5.20;99.90;;;;;;4848442;29;20040;-65
2022/01/23 00:17:18;;;;;;;72.32;16.45;;;5.10;99.90;;;;;;4861236;29;20143;-64
2022/01/23 00:19:44;;;;;;;57.65;16.27;;;5.10;99.90;;;;;;4853714;29;20021;-65
2022/01/23 00:22:11;;;;;;;53.53;14.75;;;5.10;99.90;;;;;;4838990;29;20739;-65
2022/01/23 00:32:48;;;;;;;62.50;14.98;;;5.10;99.90;;;;;;4858700;29;20029;-65
2022/01/23 00:35:14;;;;;;;58.70;14.93;;;5.10;99.90;;;;;;4847650;29;20041;-64
2022/01/23 00:37:40;;;;;;;64.00;16.55;;;5.20;99.90;;;;;;4860017;29;20033;-65
2022/01/23 00:40:05;;;;;;;55.38;14.73;;;5.10;99.90;;;;;;4845646;29;20032;-65
2022/01/23 00:42:31;;;;;;;57.20;15.18;;;5.10;99.90;;;;;;4836797;29;20767;-65
2022/01/23 00:45:22;;;;;;;55.65;14.55;;;5.10;99.90;;;;;;4846438;29;20058;-65
2022/01/23 00:47:42;;;;;;;52.15;13.82;;;5.20;99.90;;;;;;4838661;29;21477;-65
2022/01/23 00:50:07;;;;;;;44.70;12.88;;;5.20;99.90;;;;;;4860478;29;20064;-65
2022/01/23 00:52:33;;;;;;;57.47;15.27;;;4.90;99.90;;;;;;4845599;29;20070;-62
2022/01/23 00:55:00;;;;;;;48.92;13.48;;;5.10;99.90;;;;;;4841761;29;20065;-62
2022/01/23 00:57:25;;;;;;;51.05;13.27;;;5.20;99.90;;;;;;4857787;29;20049;-62
2022/01/23 00:59:51;;;;;;;50.95;13.45;;;5.10;99.90;;;;;;4841179;29;20789;-62
2022/01/23 01:02:16;;;;;;;48.15;13.25;;;5.10;99.90;;;;;;4837372;29;20800;-62
2022/01/23 01:04:42;;;;;;;44.50;13.43;;;5.20;99.90;;;;;;4837450;29;20030;-62
2022/01/23 01:07:07;;;;;;;44.22;14.45;;;5.10;99.90;;;;;;4843361;29;20079;-62
2022/01/23 01:09:33;;;;;;;55.60;13.32;;;5.20;99.90;;;;;;4835915;29;20037;-62
2022/01/23 01:12:03;;;;;;;48.42;13.98;;;5.20;99.90;;;;;;4857936;29;20037;-62
2022/01/23 01:30:08;;;;;;;48.30;14.48;;;5.10;99.90;;;;;;4849513;29;20638;-62
2022/01/23 01:35:55;;;;;;;60.45;15.45;;;5.10;99.90;;;;;;4849078;29;20037;-64
2022/01/23 01:38:20;;;;;;;58.10;14.90;;;5.10;99.90;;;;;;4844215;29;20036;-64
2022/01/23 01:40:46;;;;;;;52.58;14.98;;;5.10;99.90;;;;;;4836120;29;20030;-64
2022/01/23 01:43:11;;;;;;;65.57;16.73;;;5.10;99.90;;;;;;4835598;29;20033;-64
2022/01/23 01:45:39;;;;;;;67.95;17.73;;;5.10;99.90;;;;;;4847229;29;20036;-64
2022/01/23 01:48:15;;;;;;;60.65;15.70;;;5.40;99.90;;;;;;4843078;29;20047;-65
2022/01/23 01:50:46;;;;;;;57.45;15.82;;;5.10;99.90;;;;;;4847440;29;20874;-64
2022/01/23 01:53:12;;;;;;;52.17;15.38;;;5.10;99.90;;;;;;4842761;29;20064;-64
2022/01/23 01:55:43;;;;;;;60.72;16.35;;;5.10;99.90;;;;;;4837060;29;20147;-64
2022/01/23 01:58:31;;;;;;;55.10;15.45;;;5.10;99.90;;;;;;4841701;29;20816;-64
2022/01/23 02:02:40;;;;;;;59.97;15.73;;;5.10;99.90;;;;;;4854976;29;20033;-64
2022/01/23 02:51:02;;;;;;;45.72;13.05;;;5.00;99.90;;;;;;4836601;29;20046;-64
2022/01/23 02:53:39;;;;;;;57.05;14.23;;;5.00;99.90;;;;;;4845231;29;20522;-64
2022/01/23 02:56:06;;;;;;;48.58;13.32;;;5.00;99.90;;;;;;4858375;29;20078;-64
2022/01/23 02:58:47;;;;;;;49.10;13.35;;;5.00;99.90;;;;;;4845319;29;20033;-64
2022/01/23 03:01:18;;;;;;;51.10;14.35;;;5.00;99.90;;;;;;4832528;29;20460;-64
2022/01/23 03:04:21;;;;;;;48.25;13.27;;;5.00;99.90;;;;;;4822834;29;20053;-64
2022/01/23 03:07:31;;;;;;;53.42;13.93;;;5.00;99.90;;;;;;4849002;29;20033;-64
2022/01/23 03:13:23;;;;;;;49.95;13.57;;;5.00;99.90;;;;;;4852097;29;20513;-64
2022/01/23 03:15:22;;;;;;;50.42;13.73;;;5.10;99.90;;;;;;4846181;29;20106;-64
2022/01/23 03:28:50;;;;;;;49.38;13.20;;;5.00;99.90;;;;;;4856310;29;20410;-64
2022/01/23 03:31:23;;;;;;;52.30;13.20;;;5.00;99.90;;;;;;4847612;29;20212;-64
2022/01/23 03:33:49;;;;;;;51.45;13.20;;;4.90;99.90;;;;;;4858287;29;20119;-61
2022/01/23 03:36:14;;;;;;;53.38;13.20;;;4.90;99.90;;;;;;4848019;29;20033;-62
2022/01/23 03:38:39;;;;;;;46.50;12.57;;;5.00;99.90;;;;;;4850156;29;20044;-61
2022/01/23 03:41:05;;;;;;;44.17;12.13;;;5.00;99.90;;;;;;4837740;29;20124;-62
2022/01/23 03:43:34;;;;;;;49.97;12.23;;;5.00;99.90;;;;;;4838856;29;20072;-61
2022/01/23 03:51:09;;;;;;;43.28;12.38;;;5.00;99.90;;;;;;4843421;29;20169;-63
2022/01/23 03:53:41;;;;;;;50.95;13.32;;;5.00;99.90;;;;;;4837968;29;20036;-62
2022/01/23 03:56:06;;;;;;;47.17;12.25;;;5.00;99.90;;;;;;4838279;29;20033;-62
2022/01/23 03:58:34;;;;;;;46.75;11.77;;;5.00;99.90;;;;;;4841087;29;20812;-63
2022/01/23 04:00:59;;;;;;;55.88;12.98;;;5.00;99.90;;;;;;4845257;29;20050;-62
2022/01/23 04:03:25;;;;;;;50.53;12.45;;;5.00;99.90;;;;;;4841712;29;20656;-63
2022/01/23 04:05:52;;;;;;;55.83;13.55;;;5.00;99.90;;;;;;4846515;29;20025;-63
2022/01/23 04:08:17;;;;;;;49.30;12.02;;;5.00;99.90;;;;;;4846526;29;20422;-63
2022/01/23 04:10:46;;;;;;;52.58;13.07;;;5.00;99.90;;;;;;4853625;29;20512;-63
2022/01/23 04:14:03;;;;;;;58.22;13.02;;;5.00;99.90;;;;;;4848923;29;20033;-63
2022/01/23 04:16:15;;;;;;;53.15;12.52;;;5.00;99.90;;;;;;4837478;29;20037;-63
2022/01/23 04:45:51;;;;;;;52.97;11.88;;;5.00;99.90;;;;;;4855921;29;20523;-63
2022/01/23 04:59:32;;;;;;;43.05;11.40;;;5.00;99.90;;;;;;4849221;29;20038;-63
2022/01/23 04:59:38;;;;;;;50.20;12.05;;;5.00;99.90;;;;;;4854062;29;20049;-63
2022/01/23 05:04:57;;;;;;;50.97;12.82;;;5.00;99.90;;;;;;4868685;29;20137;-63
2022/01/23 05:07:45;;;;;;;45.05;12.15;;;5.00;99.90;;;;;;4846856;29;20111;-64
2022/01/23 05:10:17;;;;;;;46.03;12.48;;;4.90;99.90;;;;;;4857466;29;20045;-63
2022/01/23 05:13:05;;;;;;;49.67;12.25;;;5.00;99.90;;;;;;4857268;29;20041;-63
2022/01/23 05:15:31;;;;;;;50.90;11.43;;;4.90;99.90;;;;;;4851592;29;20925;-63
2022/01/23 05:17:57;;;;;;;52.15;12.15;;;5.00;99.90;;;;;;4843492;29;20029;-63
2022/01/23 05:20:26;;;;;;;47.63;11.93;;;5.00;99.90;;;;;;4860678;29;20037;-63
2022/01/23 05:22:54;;;;;;;47.70;12.20;;;5.00;99.90;;;;;;4858229;29;20070;-63
2022/01/23 05:25:24;;;;;;;44.88;11.55;;;5.00;99.90;;;;;;4854023;29;20041;-63
2022/01/23 05:27:52;;;;;;;50.67;12.43;;;4.90;99.90;;;;;;4852869;29;20029;-63
2022/01/23 05:30:18;;;;;;;43.30;11.68;;;5.00;99.90;;;;;;4850430;29;20558;-63
2022/01/23 05:32:43;;;;;;;52.22;12.52;;;4.90;99.90;;;;;;4850996;29;20036;-63
2022/01/23 05:35:09;;;;;;;48.53;12.45;;;4.90;99.90;;;;;;4841862;29;20029;-64
2022/01/23 05:37:35;;;;;;;42.83;11.05;;;5.00;99.90;;;;;;4838635;29;20033;-62
2022/01/23 05:40:02;;;;;;;49.15;12.45;;;4.90;99.90;;;;;;4835774;29;20033;-63
2022/01/23 05:42:30;;;;;;;53.75;12.63;;;5.00;99.90;;;;;;4846176;29;20025;-63
2022/01/23 05:44:56;;;;;;;62.53;13.52;;;4.90;99.90;;;;;;4849973;29;20029;-63
2022/01/23 05:47:22;;;;;;;52.72;12.68;;;5.00;99.90;;;;;;4850856;29;21036;-63
2022/01/23 05:50:03;;;;;;;56.38;12.60;;;5.00;99.90;;;;;;4835838;29;20040;-63
2022/01/23 05:52:38;;;;;;;59.70;14.13;;;5.00;99.90;;;;;;4837176;29;20848;-63
2022/01/23 05:55:26;;;;;;;58.80;12.52;;;5.00;99.90;;;;;;4846777;29;20056;-63
2022/01/23 05:58:09;;;;;;;58.88;13.85;;;5.00;99.90;;;;;;4848435;29;20320;-63
2022/01/23 06:00:49;;;;;;;60.55;13.40;;;5.00;99.90;;;;;;4846965;29;20117;-63
2022/01/23 06:03:18;;;;;;;64.13;13.32;;;5.00;99.90;;;;;;4843916;29;20065;-63
2022/01/23 06:06:06;;;;;;;68.45;13.05;;;5.00;99.90;;;;;;4864788;29;20433;-63
2022/01/23 06:08:32;;;;;;;59.45;12.52;;;4.90;99.90;;;;;;4849018;29;20037;-63
2022/01/23 06:10:57;;;;;;;66.47;13.00;;;4.90;99.90;;;;;;4847353;29;20041;-63
2022/01/23 06:13:29;;;;;;;62.28;12.85;;;5.00;99.90;;;;;;4849395;29;20060;-63
2022/01/23 06:15:56;;;;;;;62.30;12.85;;;5.00;99.90;;;;;;4852376;29;20033;-63
2022/01/23 06:18:21;;;;;;;63.63;13.48;;;5.00;99.90;;;;;;4852870;29;20101;-63
2022/01/23 06:21:07;;;;;;;58.83;11.68;;;5.00;99.90;;;;;;4865665;29;20144;-63
2022/01/23 06:24:08;;;;;;;60.55;12.18;;;5.00;99.90;;;;;;4855480;29;20653;-63
2022/01/23 06:26:55;;;;;;;55.15;12.52;;;5.00;99.90;;;;;;4849241;29;20387;-62
2022/01/23 06:29:21;;;;;;;57.65;12.70;;;5.00;99.90;;;;;;4845896;29;20101;-63
2022/01/23 06:31:46;;;;;;;59.45;13.50;;;5.00;99.90;;;;;;4861628;29;20454;-62
2022/01/23 06:34:12;;;;;;;59.90;11.20;;;5.00;99.90;;;;;;4849703;29;20053;-63
2022/01/23 06:36:37;;;;;;;59.95;11.82;;;5.00;99.90;;;;;;4844639;29;20104;-63
2022/01/23 06:39:03;;;;;;;55.17;11.40;;;5.00;99.90;;;;;;4847165;29;20064;-62
2022/01/23 06:41:29;;;;;;;52.08;10.82;;;5.00;99.90;;;;;;4850683;29;20056;-63
2022/01/23 06:44:26;;;;;;;54.85;11.77;;;5.00;99.90;;;;;;4842698;29;20053;-63
2022/01/23 06:46:53;;;;;;;58.08;12.68;;;5.00;99.90;;;;;;4844008;29;20040;-63
2022/01/23 06:49:19;;;;;;;49.45;10.93;;;5.00;99.90;;;;;;4849186;29;20037;-63
2022/01/23 06:51:47;;;;;;;56.60;12.07;;;5.00;99.90;;;;;;4842347;29;20060;-63
2022/01/23 06:54:12;;;;;;;53.60;12.25;;;5.10;99.90;;;;;;4836563;29;20080;-63
2022/01/23 06:56:38;;;;;;;47.58;10.70;;;5.10;99.90;;;;;;4863351;29;20033;-62
2022/01/23 06:59:04;;;;;;;47.03;11.82;;;5.10;99.90;;;;;;4842601;29;20034;-62
2022/01/23 07:01:29;;;;;;;47.75;11.48;;;5.10;99.90;;;;;;4844289;29;20681;-62
2022/01/23 07:04:21;;;;;;;54.33;10.90;;;5.10;99.90;;;;;;4855682;29;20053;-62
2022/01/23 07:07:05;;;;;;;39.97;9.73;;;5.10;99.90;;;;;;4858586;29;20052;-63
2022/01/23 07:09:50;;;;;;;48.22;10.98;;;5.10;99.90;;;;;;4851483;29;20485;-62
2022/01/23 07:12:21;;;;;;;50.60;11.63;;;5.10;99.90;;;;;;4865223;29;20045;-62
2022/01/23 07:14:56;;;;;;;50.03;10.97;;;5.10;99.90;;;;;;4863020;29;20048;-62
2022/01/23 07:17:50;;;;;;;62.42;19.00;;;5.10;99.90;;;;;;4805214;29;20067;-62
2022/01/23 07:20:24;;;;;;;52.55;12.65;;;5.10;99.90;;;;;;4850024;29;20044;-62
2022/01/23 07:22:52;;;;;;;44.10;11.25;;;5.10;99.90;;;;;;4846458;29;20089;-62
2022/01/23 07:25:17;;;;;;;54.08;10.20;;;5.00;99.90;;;;;;4848530;29;20041;-62
2022/01/23 07:27:50;;;;;;;51.17;11.75;;;5.00;99.90;;;;;;4850294;29;20554;-62
2022/01/23 07:32:48;;;;;;;50.80;12.57;;;5.10;99.90;;;;;;4843832;29;20094;-63
2022/01/23 07:35:13;;;;;;;47.00;12.18;;;5.10;99.90;;;;;;4846783;29;20033;-62
2022/01/23 07:37:39;;;;;;;40.10;10.90;;;5.10;99.90;;;;;;4847690;29;20112;-63
2022/01/23 07:40:22;;;;;;;46.20;11.25;;;5.10;99.90;;;;;;4844020;29;20502;-63
2022/01/23 07:42:51;;;;;;;47.53;10.88;;;5.10;99.90;;;;;;4848801;29;20033;-63
2022/01/23 07:45:36;;;;;;;47.35;10.82;;;5.10;99.90;;;;;;4861364;29;20032;-63
2022/01/23 07:48:21;;;;;;;57.65;11.77;;;5.10;99.90;;;;;;4842550;29;20442;-63
2022/01/23 07:51:00;;;;;;;47.50;11.50;;;5.10;99.90;;;;;;4852575;29;20478;-63
2022/01/23 07:53:45;;;;;;;46.95;10.80;;;5.10;99.90;;;;;;4864029;29;20052;-64
2022/01/23 07:56:27;;;;;;;62.90;15.95;;;5.10;99.90;;;;;;4849896;29;20045;-64
2022/01/23 07:59:12;;;;;;;45.13;10.30;;;5.10;99.90;;;;;;4843509;29;20060;-64
2022/01/23 08:01:56;;;;;;;43.58;10.82;;;5.10;99.90;;;;;;4853338;29;20065;-65
2022/01/23 08:04:50;;;;;;;46.45;12.23;;;5.20;99.90;;;;;;4863108;29;20107;-64
2022/01/23 08:07:36;;;;;;;44.47;10.00;;;5.20;99.90;;;;;;4845716;29;20033;-68
2022/01/23 08:10:20;;;;;;;43.25;10.15;;;5.30;99.90;;;;;;4862100;29;20060;-68
2022/01/23 08:12:45;;;;;;;49.25;10.27;;;5.30;99.90;;;;;;4849150;29;20072;-67
2022/01/23 08:15:11;;;;;;;38.20;10.00;;;5.30;99.90;;;;;;4857920;29;20030;-68
2022/01/23 08:17:36;;;;;;;39.53;9.02;;;5.30;99.90;;;;;;4861390;29;20032;-68
2022/01/23 08:20:02;;;;;;;34.05;8.65;;;5.30;99.90;;;;;;4861482;29;20042;-67
2022/01/23 08:22:27;;;;;;;42.50;9.57;;;5.30;99.90;;;;;;4847380;29;20037;-67
2022/01/23 08:24:54;;;;;;;37.72;9.18;;;5.30;99.90;;;;;;4861898;29;20033;-68
2022/01/23 08:27:19;;;;;;;42.53;9.10;;;5.30;99.90;;;;;;4854198;29;20237;-67
2022/01/23 08:29:45;;;;;;;125.10;37.85;;;5.40;99.90;;;;;;4858363;29;20037;-66
2022/01/23 08:32:10;;;;;;;37.83;9.45;;;5.40;99.90;;;;;;4833354;29;20037;-67
2022/01/23 08:34:36;;;;;;;40.03;9.88;;;5.40;99.90;;;;;;4862643;29;20147;-67
2022/01/23 08:37:01;;;;;;;35.72;8.77;;;5.50;99.90;;;;;;4863940;29;20032;-68
2022/01/23 08:39:30;;;;;;;27.58;8.45;;;5.50;99.90;;;;;;4844310;29;20906;-67
2022/01/23 08:41:55;;;;;;;30.58;8.43;;;5.50;99.90;;;;;;4853924;29;20111;-68
2022/01/23 08:44:21;;;;;;;33.72;9.40;;;5.50;99.90;;;;;;4850854;29;20080;-67
2022/01/23 08:46:46;;;;;;;32.53;8.80;;;5.60;99.90;;;;;;4865437;29;20493;-67
2022/01/23 08:49:12;;;;;;;28.02;9.23;;;5.60;99.90;;;;;;4848861;29;20855;-67
2022/01/23 08:51:37;;;;;;;27.45;8.20;;;5.70;99.90;;;;;;4865903;29;20040;-67
2022/01/23 08:54:03;;;;;;;29.42;7.97;;;5.60;99.90;;;;;;4853779;29;20109;-67
2022/01/23 08:56:28;;;;;;;30.10;7.93;;;5.60;99.90;;;;;;4863694;29;20056;-67
2022/01/23 08:58:54;;;;;;;24.52;8.48;;;5.60;99.90;;;;;;4863708;29;20485;-67
2022/01/23 09:01:19;;;;;;;23.65;8.27;;;5.60;99.90;;;;;;4867446;29;20040;-67
2022/01/23 09:03:45;;;;;;;22.13;7.22;;;5.70;99.90;;;;;;4865675;29;20052;-67
2022/01/23 09:06:10;;;;;;;22.65;7.57;;;5.60;99.90;;;;;;4861800;29;20030;-67
2022/01/23 09:08:38;;;;;;;22.30;7.13;;;5.70;99.90;;;;;;4848329;29;20071;-68
2022/01/23 09:11:09;;;;;;;22.27;6.82;;;5.70;99.90;;;;;;4864004;29;20077;-67
2022/01/23 09:16:09;;;;;;;23.40;6.90;;;5.80;99.90;;;;;;4861630;29;20123;-68
2022/01/23 09:18:35;;;;;;;17.88;6.70;;;5.70;99.90;;;;;;4862698;29;20309;-68
2022/01/23 09:21:00;;;;;;;19.63;6.90;;;5.80;99.90;;;;;;4864052;29;20085;-64
2022/01/23 09:23:26;;;;;;;21.85;6.82;;;5.80;99.90;;;;;;4852784;29;20410;-64
2022/01/23 09:25:52;;;;;;;24.83;7.35;;;5.80;99.90;;;;;;4868591;29;20029;-64
2022/01/23 09:28:19;;;;;;;20.90;7.00;;;5.90;99.90;;;;;;4861622;29;20744;-64
2022/01/23 09:30:48;;;;;;;21.25;7.57;;;5.90;99.90;;;;;;4861457;29;20501;-63
2022/01/23 09:33:14;;;;;;;39.17;14.93;;;5.90;99.90;;;;;;4860652;29;20044;-63
2022/01/23 09:35:39;;;;;;;18.50;7.57;;;5.90;99.90;;;;;;4847165;29;20028;-64
2022/01/23 09:38:05;;;;;;;19.80;7.35;;;5.90;99.90;;;;;;4851785;29;20772;-64
2022/01/23 09:40:30;;;;;;;22.75;7.25;;;5.90;99.90;;;;;;4851754;29;20393;-64
2022/01/23 09:42:56;;;;;;;19.85;7.07;;;5.90;99.90;;;;;;4864093;29;20092;-64
2022/01/23 09:45:22;;;;;;;16.90;6.00;;;6.00;99.90;;;;;;4854439;29;20048;-63
2022/01/23 09:47:47;;;;;;;16.33;6.05;;;6.00;99.90;;;;;;4835156;29;20026;-63
2022/01/23 09:50:13;;;;;;;18.35;6.40;;;6.00;99.90;;;;;;4845616;29;20581;-63
2022/01/23 09:52:38;;;;;;;16.70;6.85;;;6.10;99.90;;;;;;4850033;29;20064;-63
2022/01/23 09:55:09;;;;;;;16.02;6.32;;;6.10;99.90;;;;;;4865788;29;20036;-63
2022/01/23 09:57:34;;;;;;;17.67;6.32;;;6.10;99.90;;;;;;4862177;29;20053;-64
2022/01/23 10:00:00;;;;;;;16.85;6.45;;;6.10;99.90;;;;;;4845465;29;20028;-63
2022/01/23 10:02:25;;;;;;;17.15;5.88;;;6.20;99.90;;;;;;4864761;29;20140;-67
2022/01/23 10:04:51;;;;;;;15.25;6.88;;;6.20;99.90;;;;;;4860902;29;20040;-67
2022/01/23 10:07:16;;;;;;;19.92;6.97;;;6.10;99.90;;;;;;4863704;29;20041;-67
2022/01/23 10:09:41;;;;;;;17.35;6.88;;;6.00;99.90;;;;;;4866499;29;20112;-67
2022/01/23 10:12:07;;;;;;;19.42;6.95;;;6.10;99.90;;;;;;4846463;29;20526;-67
2022/01/23 10:14:33;;;;;;;17.10;6.47;;;6.10;99.90;;;;;;4863764;29;20115;-67
2022/01/23 10:16:58;;;;;;;18.92;7.82;;;6.20;99.90;;;;;;4861076;29;20040;-68
2022/01/23 10:19:23;;;;;;;17.98;7.75;;;6.30;99.90;;;;;;4864447;29;20794;-68
2022/01/23 10:21:49;;;;;;;19.35;6.72;;;6.40;99.90;;;;;;4865530;29;20120;-67
2022/01/23 10:24:15;;;;;;;16.35;6.32;;;6.30;99.90;;;;;;4850790;29;20029;-67
2022/01/23 10:26:43;;;;;;;23.30;6.47;;;6.30;99.90;;;;;;4846676;29;20036;-67
2022/01/23 10:29:09;;;;;;;24.58;11.77;;;6.30;99.90;;;;;;4849381;29;20776;-67
2022/01/23 10:31:34;;;;;;;15.07;7.10;;;6.30;99.90;;;;;;4833976;29;20047;-68
2022/01/23 10:34:00;;;;;;;19.17;6.80;;;6.40;99.90;;;;;;4839083;29;20638;-67
2022/01/23 10:36:25;;;;;;;17.08;6.95;;;6.40;99.90;;;;;;4847497;29;20079;-68
2022/01/23 10:38:51;;;;;;;17.05;8.38;;;6.40;99.90;;;;;;4849341;29;20096;-68
2022/01/23 10:46:40;;;;;;;18.42;7.90;;;6.60;99.90;;;;;;4850436;29;20123;-67
2022/01/23 10:49:05;;;;;;;17.75;8.85;;;6.70;99.90;;;;;;4854303;29;20037;-68
2022/01/23 10:51:31;;;;;;;24.23;12.07;;;6.90;99.90;;;;;;4859684;29;20037;-68
2022/01/23 10:53:59;;;;;;;21.42;11.57;;;7.00;99.90;;;;;;4859838;29;20033;-68
2022/01/23 10:56:25;;;;;;;14.57;8.30;;;7.00;99.90;;;;;;4861914;29;20108;-67
2022/01/23 10:58:51;;;;;;;34.65;18.05;;;6.90;99.90;;;;;;4851595;29;20151;-67
2022/01/23 11:01:16;;;;;;;14.18;7.18;;;6.90;99.90;;;;;;4851288;29;20124;-67
2022/01/23 11:03:42;;;;;;;10.90;5.82;;;6.90;99.90;;;;;;4839632;29;20057;-68
2022/01/23 11:06:07;;;;;;;17.17;9.55;;;6.90;99.90;;;;;;4835699;29;20048;-66
2022/01/23 11:08:33;;;;;;;10.57;5.18;;;6.90;99.90;;;;;;4865651;29;20749;-66
2022/01/23 11:10:58;;;;;;;11.80;5.70;;;7.00;99.90;;;;;;4847118;29;20037;-68
2022/01/23 11:18:52;;;;;;;10.45;5.18;;;7.30;99.90;;;;;;4861695;29;20116;-68
2022/01/23 11:21:18;;;;;;;7.70;4.50;;;7.30;99.90;;;;;;4844768;29;20073;-68
2022/01/23 11:23:44;;;;;;;7.30;4.18;;;7.40;99.90;;;;;;4846457;29;20667;-68
2022/01/23 11:26:09;;;;;;;9.18;3.22;;;7.40;99.90;;;;;;4864412;29;20088;-68
2022/01/23 11:28:39;;;;;;;8.15;3.55;;;7.40;99.90;;;;;;4835315;29;20044;-69
2022/01/23 11:31:04;;;;;;;5.35;3.42;;;7.40;99.90;;;;;;4843454;29;20029;-67
2022/01/23 11:33:30;;;;;;;5.55;3.28;;;7.30;99.90;;;;;;4846871;29;20048;-68
2022/01/23 11:35:55;;;;;;;8.07;3.95;;;7.30;99.90;;;;;;4845971;29;20040;-68
2022/01/23 11:38:23;;;;;;;5.97;3.80;;;7.40;99.90;;;;;;4862597;29;20121;-68
2022/01/23 11:53:52;;;;;;;5.70;3.75;;;7.20;99.90;;;;;;4864848;29;20068;-68
2022/01/23 11:56:18;;;;;;;5.95;3.72;;;7.10;99.90;;;;;;4847719;29;20136;-68
2022/01/23 11:58:44;;;;;;;6.22;3.42;;;7.20;99.90;;;;;;4854438;29;20032;-68
2022/01/23 12:01:10;;;;;;;7.00;3.95;;;7.10;99.90;;;;;;4861086;29;20030;-68
2022/01/23 12:03:35;;;;;;;11.18;6.15;;;7.00;99.90;;;;;;4851587;29;20111;-68
2022/01/23 12:06:01;;;;;;;8.90;4.20;;;7.00;99.90;;;;;;4857563;29;20184;-68
2022/01/23 12:08:31;;;;;;;8.15;4.03;;;7.10;99.90;;;;;;4859620;29;20098;-68
2022/01/23 12:11:05;;;;;;;7.45;3.95;;;7.00;99.90;;;;;;4849769;29;20058;-68
2022/01/23 12:19:05;;;;;;;5.55;3.53;;;7.20;99.90;;;;;;4787777;29;20068;-68
2022/01/23 12:21:31;;;;;;;5.25;3.42;;;7.10;99.90;;;;;;4839618;29;20045;-67
2022/01/23 12:23:56;;;;;;;5.55;3.75;;;7.10;99.90;;;;;;4844162;29;20034;-68
2022/01/23 12:26:22;;;;;;;5.57;3.55;;;7.10;99.90;;;;;;4853703;29;20140;-68
2022/01/23 12:28:48;;;;;;;5.22;3.08;;;7.20;99.90;;;;;;4866683;29;20164;-68
2022/01/23 12:31:13;;;;;;;7.20;2.80;;;7.00;99.90;;;;;;4855410;29;20033;-68
2022/01/23 12:33:38;;;;;;;5.28;2.83;;;7.00;99.90;;;;;;4864912;29;20294;-68
2022/01/23 12:36:04;;;;;;;5.38;3.35;;;7.00;99.90;;;;;;4836758;29;20045;-68
2022/01/23 12:38:30;;;;;;;5.30;3.25;;;7.00;99.90;;;;;;4865988;29;20040;-68
2022/01/23 12:40:55;;;;;;;6.65;2.78;;;7.00;99.90;;;;;;4864402;29;20033;-68
2022/01/23 12:43:21;;;;;;;6.68;3.10;;;7.20;99.90;;;;;;4854423;29;20059;-68
2022/01/23 12:45:47;;;;;;;5.25;2.67;;;7.30;99.90;;;;;;4865259;29;20056;-67
2022/01/23 12:48:12;;;;;;;3.65;2.50;;;7.30;99.90;;;;;;4864762;29;20486;-67
2022/01/23 12:50:38;;;;;;;7.55;3.40;;;7.20;99.90;;;;;;4842680;29;20142;-68
2022/01/23 12:53:03;;;;;;;5.85;2.55;;;7.30;99.90;;;;;;4861942;29;20029;-68
2022/01/23 12:55:29;;;;;;;5.80;2.88;;;7.30;99.90;;;;;;4845704;29;20124;-68
2022/01/23 12:57:54;;;;;;;4.60;2.42;;;7.40;99.90;;;;;;4867838;29;20573;-68
2022/01/23 13:00:25;;;;;;;6.03;3.10;;;7.40;99.90;;;;;;4852165;29;20080;-68
2022/01/23 13:02:53;;;;;;;4.47;2.78;;;7.40;99.90;;;;;;4863281;29;20053;-68
2022/01/23 13:05:18;;;;;;;4.75;2.30;;;7.40;99.90;;;;;;4863648;29;20068;-68
2022/01/23 13:10:37;;;;;;;2.58;1.80;;;7.50;99.90;;;;;;4866419;29;20120;-68
2022/01/23 13:31:16;;;;;;;5.05;2.60;;;7.20;99.90;;;;;;4852815;29;20029;-68
2022/01/23 13:33:41;;;;;;;6.47;2.60;;;7.20;99.90;;;;;;4862564;29;20048;-68
2022/01/23 13:36:07;;;;;;;35.20;14.45;;;7.20;99.90;;;;;;4851196;29;20395;-69
2022/01/23 13:38:34;;;;;;;4.38;2.13;;;7.20;99.90;;;;;;4848043;29;20072;-69
2022/01/23 13:41:09;;;;;;;3.63;2.40;;;7.20;99.90;;;;;;4861304;29;20029;-68
2022/01/23 13:52:00;;;;;;;4.25;2.60;;;7.30;99.90;;;;;;4863152;29;20028;-68
2022/01/23 14:02:14;;;;;;;4.22;1.95;;;7.20;99.90;;;;;;4867529;29;20064;-68
2022/01/23 14:04:40;;;;;;;4.03;2.28;;;7.10;99.90;;;;;;4866586;29;20036;-67
2022/01/23 14:07:05;;;;;;;5.30;2.22;;;7.10;99.90;;;;;;4844229;29;20416;-67
2022/01/23 14:09:31;;;;;;;3.63;2.08;;;7.10;99.90;;;;;;4869053;29;20076;-71
2022/01/23 14:11:56;;;;;;;3.58;1.58;;;7.00;99.90;;;;;;4846729;29;20042;-71
2022/01/23 14:14:22;;;;;;;3.08;2.00;;;7.00;99.90;;;;;;4866374;29;20664;-68
2022/01/23 14:16:48;;;;;;;4.25;2.08;;;6.90;99.90;;;;;;4864174;29;20048;-70
2022/01/23 14:19:13;;;;;;;3.58;2.00;;;6.90;99.90;;;;;;4859171;29;20037;-68
2022/01/23 14:21:38;;;;;;;4.72;2.50;;;6.90;99.90;;;;;;4852076;29;20032;-69
2022/01/23 14:24:04;;;;;;;38.15;18.00;;;7.10;99.90;;;;;;4855376;29;20135;-68
2022/01/23 14:26:29;;;;;;;5.45;2.47;;;7.10;99.90;;;;;;4874306;29;20072;-69
2022/01/23 14:28:55;;;;;;;4.35;2.10;;;7.10;99.90;;;;;;4848052;29;20511;-69
2022/01/23 14:31:22;;;;;;;3.45;2.20;;;7.10;99.90;;;;;;4865747;29;20038;-69
2022/01/23 14:33:49;;;;;;;2.70;2.00;;;7.10;99.90;;;;;;4864052;29;20056;-69
2022/01/23 14:36:14;;;;;;;2.92;1.70;;;7.00;99.90;;;;;;4872232;29;20031;-69
2022/01/23 14:38:40;;;;;;;3.42;1.85;;;7.00;99.90;;;;;;4865541;29;20028;-69
2022/01/23 14:41:05;;;;;;;3.22;2.10;;;7.00;99.90;;;;;;4872274;29;20506;-69
2022/01/23 14:43:31;;;;;;;3.00;1.90;;;7.00;99.90;;;;;;4872465;29;20037;-68
2022/01/23 14:45:57;;;;;;;5.38;1.80;;;6.90;99.90;;;;;;4851019;29;20102;-69
2022/01/23 14:48:22;;;;;;;3.83;1.70;;;6.90;99.90;;;;;;4867465;29;20111;-70
2022/01/23 14:50:51;;;;;;;3.67;2.20;;;6.90;99.90;;;;;;4864450;29;20490;-69
2022/01/23 14:53:16;;;;;;;3.88;2.13;;;6.90;99.90;;;;;;4864527;29;20044;-69
2022/01/23 14:55:42;;;;;;;3.72;2.20;;;6.80;99.90;;;;;;4864360;29;20033;-69
2022/01/23 14:58:07;;;;;;;8.70;1.90;;;6.90;99.90;;;;;;4850974;29;20033;-69
2022/01/23 15:00:33;;;;;;;2.20;1.77;;;6.90;99.90;;;;;;4871822;29;20048;-69
2022/01/23 15:02:58;;;;;;;6.50;2.42;;;6.80;99.90;;;;;;4865001;29;20477;-69
2022/01/23 15:05:24;;;;;;;4.53;1.92;;;6.90;99.90;;;;;;4868392;29;20029;-69
2022/01/23 15:07:49;;;;;;;5.65;2.60;;;6.90;99.90;;;;;;4866891;29;20115;-69
2022/01/23 15:10:15;;;;;;;3.83;2.40;;;6.90;99.90;;;;;;4863075;29;20029;-69
2022/01/23 15:12:40;;;;;;;4.40;2.40;;;6.90;99.90;;;;;;4870811;29;20913;-69
2022/01/23 15:15:06;;;;;;;7.93;3.53;;;6.80;99.90;;;;;;4865551;29;20060;-69
2022/01/23 15:17:31;;;;;;;9.70;3.75;;;6.80;99.90;;;;;;4868065;29;20052;-70
2022/01/23 15:19:56;;;;;;;13.13;5.15;;;6.60;99.90;;;;;;4867128;29;20079;-69
2022/01/23 15:22:25;;;;;;;8.45;3.38;;;6.60;99.90;;;;;;4855372;29;20130;-70
2022/01/23 15:24:51;;;;;;;4.75;2.85;;;6.60;99.90;;;;;;4845783;29;20410;-69
2022/01/23 15:27:16;;;;;;;6.00;3.00;;;6.60;99.90;;;;;;4862682;29;20070;-69
2022/01/23 15:29:42;;;;;;;10.30;3.83;;;6.60;99.90;;;;;;4844449;29;20033;-66
2022/01/23 15:32:08;;;;;;;7.20;3.75;;;6.60;99.90;;;;;;4851884;29;20529;-66
2022/01/23 15:34:35;;;;;;;8.15;3.80;;;6.50;99.90;;;;;;4865285;29;20053;-66
2022/01/23 15:37:01;;;;;;;4.10;2.45;;;6.50;99.90;;;;;;4864198;29;20041;-66
2022/01/23 15:39:27;;;;;;;6.55;3.05;;;6.50;99.90;;;;;;4861767;29;20435;-66
2022/01/23 15:41:52;;;;;;;6.22;2.67;;;6.50;99.90;;;;;;4845682;29;20166;-66
2022/01/23 15:44:18;;;;;;;7.78;4.93;;;6.50;99.90;;;;;;4858914;29;20044;-69
2022/01/23 15:46:43;;;;;;;28.30;18.38;;;6.50;99.90;;;;;;4875174;29;20513;-69
2022/01/23 15:49:09;;;;;;;10.77;7.70;;;6.50;99.90;;;;;;4851864;29;20048;-69
2022/01/23 15:51:34;;;;;;;4.50;2.50;;;6.50;99.90;;;;;;4846666;29;20033;-69
2022/01/23 15:54:00;;;;;;;3.45;2.05;;;6.40;99.90;;;;;;4862259;29;20879;-69
2022/01/23 15:56:26;;;;;;;3.65;2.10;;;6.40;99.90;;;;;;4862200;29;20042;-68
2022/01/23 15:58:51;;;;;;;3.55;1.90;;;6.40;99.90;;;;;;4853157;29;20045;-69
2022/01/23 16:01:16;;;;;;;2.67;1.77;;;6.40;99.90;;;;;;4870476;29;20033;-69
2022/01/23 16:03:42;;;;;;;1.77;1.58;;;6.40;99.90;;;;;;4855035;29;20041;-69
2022/01/23 16:06:08;;;;;;;3.35;1.75;;;6.30;99.90;;;;;;4854272;29;20036;-69
2022/01/23 16:08:35;;;;;;;2.97;2.05;;;6.30;99.90;;;;;;4852799;29;20117;-69
2022/01/23 16:11:01;;;;;;;3.95;1.63;;;6.30;99.90;;;;;;4853125;29;20443;-70
2022/01/23 16:13:29;;;;;;;8.15;2.20;;;6.40;99.90;;;;;;4869932;29;20072;-69
2022/01/23 16:15:54;;;;;;;5.10;1.90;;;6.50;99.90;;;;;;4852342;29;20036;-70
2022/01/23 16:18:20;;;;;;;3.67;2.40;;;6.50;99.90;;;;;;4852610;29;20038;-69
2022/01/23 16:20:45;;;;;;;8.85;3.92;;;6.40;99.90;;;;;;4865986;29;20041;-67